createdAt,value
2023-02-04T00:02:04.739Z,7.97
2023-02-04T00:04:31.154Z,7.33
2023-02-04T00:06:57.661Z,7.60
2023-02-04T00:09:24.074Z,6.83
2023-02-04T00:11:50.528Z,7.80
2023-02-04T00:14:16.940Z,7.27
2023-02-04T00:16:43.473Z,7.87
2023-02-04T00:19:09.866Z,8.07
2023-02-04T00:21:36.337Z,8.27
2023-02-04T00:24:02.854Z,7.33
2023-02-04T00:26:29.357Z,6.53
2023-02-04T00:28:56.220Z,6.63
2023-02-04T00:31:23.411Z,5.73
2023-02-04T00:33:49.950Z,5.43
2023-02-04T00:36:16.381Z,5.20
2023-02-04T00:38:42.849Z,4.90
2023-02-04T00:41:09.335Z,4.87
2023-02-04T00:43:35.792Z,4.17
2023-02-04T00:46:04.878Z,3.07
2023-02-04T00:48:31.321Z,3.33
2023-02-04T00:50:57.726Z,2.13
2023-02-04T00:53:24.171Z,2.20
2023-02-04T00:55:50.614Z,1.87
2023-02-04T00:58:17.077Z,1.80
2023-02-04T01:00:43.829Z,1.80
2023-02-04T01:03:10.387Z,1.50
2023-02-04T01:05:37.010Z,1.30
2023-02-04T01:08:05.079Z,1.40
2023-02-04T01:10:31.968Z,1.23
2023-02-04T01:12:58.621Z,1.23
2023-02-04T01:15:26.776Z,1.07
2023-02-04T01:17:53.819Z,0.80
2023-02-04T01:20:20.409Z,0.70
2023-02-04T01:22:48.615Z,0.97
2023-02-04T01:25:15.214Z,0.50
2023-02-04T01:27:42.604Z,0.67
2023-02-04T01:30:10.963Z,0.63
2023-02-04T01:32:37.566Z,0.50
2023-02-04T01:35:04.559Z,0.70
2023-02-04T01:37:32.696Z,0.60
2023-02-04T01:39:59.197Z,0.67
2023-02-04T01:42:25.656Z,0.70
2023-02-04T01:44:52.848Z,0.83
2023-02-04T01:47:21.547Z,0.53
2023-02-04T01:49:52.671Z,0.63
2023-02-04T01:52:20.022Z,0.70
2023-02-04T01:54:46.966Z,0.80
2023-02-04T01:57:16.068Z,1.00
2023-02-04T01:59:47.168Z,0.83
2023-02-04T02:02:43.522Z,0.83
2023-02-04T02:05:13.115Z,0.90
2023-02-04T02:07:39.791Z,0.90
2023-02-04T02:10:08.661Z,0.60
2023-02-04T02:12:36.735Z,1.30
2023-02-04T02:15:04.060Z,0.90
2023-02-04T02:17:30.970Z,0.70
2023-02-04T02:19:57.407Z,1.20
2023-02-04T02:22:33.273Z,1.00
2023-02-04T02:24:59.919Z,1.10
2023-02-04T02:27:26.357Z,1.20
2023-02-04T02:29:52.917Z,1.23
2023-02-04T02:32:19.476Z,1.20
2023-02-04T02:34:46.821Z,1.30
2023-02-04T02:37:13.964Z,1.47
2023-02-04T02:39:44.316Z,1.20
2023-02-04T02:42:16.115Z,1.27
2023-02-04T02:44:45.714Z,1.30
2023-02-04T02:47:17.280Z,1.43
2023-02-04T02:49:44.404Z,2.07
2023-02-04T02:52:12.690Z,2.10
2023-02-04T02:54:40.516Z,1.73
2023-02-04T02:57:13.950Z,1.60
2023-02-04T02:59:41.040Z,1.43
2023-02-04T03:02:09.851Z,1.60
2023-02-04T03:04:41.754Z,2.13
2023-02-04T03:07:10.846Z,1.63
2023-02-04T03:09:37.573Z,1.83
2023-02-04T03:12:06.200Z,1.93
2023-02-04T03:14:35.104Z,1.83
2023-02-04T03:17:03.700Z,1.53
2023-02-04T03:19:30.292Z,1.60
2023-02-04T03:21:57.964Z,1.70
2023-02-04T03:24:25.033Z,1.70
2023-02-04T03:26:51.967Z,1.60
2023-02-04T03:29:18.602Z,1.90
2023-02-04T03:31:45.262Z,1.80
2023-02-04T03:34:11.812Z,1.43
2023-02-04T03:36:38.347Z,1.70
2023-02-04T03:39:04.873Z,1.50
2023-02-04T03:41:32.258Z,1.37
2023-02-04T03:43:58.747Z,2.00
2023-02-04T03:46:25.926Z,1.60
2023-02-04T03:48:52.528Z,1.83
2023-02-04T03:51:18.931Z,1.97
2023-02-04T03:53:45.481Z,1.83
2023-02-04T03:56:11.918Z,2.03
2023-02-04T03:58:38.383Z,1.87
2023-02-04T04:01:04.974Z,1.60
2023-02-04T04:03:31.374Z,1.70
2023-02-04T04:05:57.864Z,1.80
2023-02-04T04:08:25.323Z,1.60
2023-02-04T04:10:51.754Z,1.40
2023-02-04T04:13:18.205Z,1.70
2023-02-04T04:15:45.409Z,1.40
2023-02-04T04:18:11.863Z,1.53
2023-02-04T04:20:38.582Z,1.37
2023-02-04T04:23:05.060Z,1.70
2023-02-04T04:25:31.509Z,1.40
2023-02-04T04:27:58.032Z,1.63
2023-02-04T04:30:25.034Z,2.03
2023-02-04T04:32:51.457Z,1.70
2023-02-04T04:35:17.871Z,1.90
2023-02-04T04:37:44.294Z,1.60
2023-02-04T04:40:12.740Z,1.87
2023-02-04T04:42:39.186Z,1.43
2023-02-04T04:45:08.960Z,1.50
2023-02-04T04:47:35.392Z,1.60
2023-02-04T04:50:01.863Z,2.00
2023-02-04T04:52:28.258Z,1.80
2023-02-04T04:54:57.076Z,1.83
2023-02-04T04:57:23.556Z,1.90
2023-02-04T04:59:49.987Z,1.93
2023-02-04T05:02:16.457Z,1.90
2023-02-04T05:04:42.976Z,2.20
2023-02-04T05:07:09.512Z,1.57
2023-02-04T05:09:35.941Z,2.10
2023-02-04T05:12:02.744Z,2.03
2023-02-04T05:14:29.189Z,2.00
2023-02-04T05:16:55.720Z,2.07
2023-02-04T05:19:22.130Z,2.03
2023-02-04T05:21:48.575Z,1.97
2023-02-04T05:24:15.051Z,2.13
2023-02-04T05:26:41.552Z,2.47
2023-02-04T05:29:10.397Z,2.40
2023-02-04T05:31:37.240Z,2.00
2023-02-04T05:34:03.671Z,2.53
2023-02-04T05:36:30.133Z,2.47
2023-02-04T05:38:56.592Z,2.20
2023-02-04T05:41:23.027Z,3.10
2023-02-04T05:43:49.472Z,2.37
2023-02-04T05:46:15.934Z,2.53
2023-02-04T05:48:42.416Z,2.10
2023-02-04T05:51:08.814Z,2.43
2023-02-04T05:53:35.365Z,2.87
2023-02-04T05:56:02.247Z,4.10
2023-02-04T05:58:33.610Z,2.93
2023-02-04T06:01:04.486Z,3.63
2023-02-04T06:03:31.299Z,3.07
2023-02-04T06:05:57.793Z,2.73
2023-02-04T06:08:24.651Z,2.10
2023-02-04T06:10:51.110Z,1.73
2023-02-04T06:13:17.953Z,2.07
2023-02-04T06:15:44.366Z,2.20
2023-02-04T06:18:10.962Z,2.30
2023-02-04T06:20:37.416Z,2.13
2023-02-04T06:23:03.838Z,2.00
2023-02-04T06:25:30.393Z,2.30
2023-02-04T06:27:56.890Z,1.93
2023-02-04T06:30:23.418Z,2.27
2023-02-04T06:32:49.888Z,2.33
2023-02-04T06:35:16.574Z,2.77
2023-02-04T06:37:43.208Z,14.17
2023-02-04T06:40:10.969Z,20.33
2023-02-04T06:42:37.482Z,49.73
2023-02-04T06:45:05.043Z,15.20
2023-02-04T06:47:31.572Z,4.93
2023-02-04T06:49:57.977Z,3.20
2023-02-04T06:52:24.505Z,5.30
2023-02-04T06:54:50.983Z,5.00
2023-02-04T06:57:17.538Z,4.27
2023-02-04T06:59:44.040Z,4.97
2023-02-04T07:02:13.064Z,4.37
2023-02-04T07:04:39.551Z,4.80
2023-02-04T07:07:06.169Z,4.93
2023-02-04T07:09:32.641Z,3.60
2023-02-04T07:11:59.063Z,2.17
2023-02-04T07:14:25.529Z,2.27
2023-02-04T07:16:52.101Z,2.57
2023-02-04T07:19:20.229Z,2.73
2023-02-04T07:21:47.598Z,2.80
2023-02-04T07:24:14.017Z,2.70
2023-02-04T07:26:40.853Z,2.47
2023-02-04T07:29:12.207Z,3.30
2023-02-04T07:31:41.408Z,2.57
2023-02-04T07:34:08.122Z,3.30
2023-02-04T07:36:34.691Z,4.20
2023-02-04T07:39:01.219Z,4.37
2023-02-04T07:41:27.727Z,2.83
2023-02-04T07:43:54.112Z,2.27
2023-02-04T07:46:20.636Z,2.00
2023-02-04T07:48:47.128Z,1.83
2023-02-04T07:51:13.553Z,2.00
2023-02-04T07:53:39.976Z,16.07
2023-02-04T07:56:06.665Z,6.53
2023-02-04T07:58:33.209Z,4.60
2023-02-04T08:00:59.756Z,5.23
2023-02-04T08:03:26.166Z,6.47
2023-02-04T08:05:53.084Z,7.10
2023-02-04T08:08:20.267Z,6.40
2023-02-04T08:10:46.745Z,7.93
2023-02-04T08:13:13.595Z,5.73
2023-02-04T08:15:40.085Z,7.80
2023-02-04T08:18:06.678Z,8.13
2023-02-04T08:20:33.890Z,8.37
2023-02-04T08:23:00.582Z,7.00
2023-02-04T08:25:28.897Z,6.50
2023-02-04T08:27:55.876Z,7.00
2023-02-04T08:30:22.536Z,7.23
2023-02-04T08:32:48.965Z,6.93
2023-02-04T08:35:16.110Z,6.40
2023-02-04T08:37:42.553Z,5.73
2023-02-04T08:40:09.720Z,5.90
2023-02-04T08:42:36.669Z,5.70
2023-02-04T08:45:03.831Z,5.30
2023-02-04T08:47:30.248Z,4.47
2023-02-04T08:49:56.972Z,4.20
2023-02-04T08:52:23.747Z,3.63
2023-02-04T08:54:50.154Z,3.03
2023-02-04T08:57:16.607Z,4.00
2023-02-04T08:59:42.996Z,6.97
2023-02-04T09:02:10.293Z,6.37
2023-02-04T09:04:37.371Z,5.10
2023-02-04T09:07:03.895Z,4.77
2023-02-04T09:09:30.321Z,4.27
2023-02-04T09:11:56.872Z,4.63
2023-02-04T09:14:23.409Z,4.13
2023-02-04T09:16:49.925Z,3.73
2023-02-04T09:19:19.647Z,4.30
2023-02-04T09:21:46.055Z,4.00
2023-02-04T09:24:12.454Z,4.20
2023-02-04T09:26:38.915Z,4.10
2023-02-04T09:29:05.332Z,3.97
2023-02-04T09:31:31.901Z,5.77
2023-02-04T09:33:59.940Z,5.40
2023-02-04T09:36:29.669Z,4.80
2023-02-04T09:38:56.340Z,4.67
2023-02-04T09:41:22.877Z,4.30
2023-02-04T09:43:50.132Z,4.73
2023-02-04T09:46:23.705Z,4.07
2023-02-04T09:48:50.970Z,5.07
2023-02-04T09:51:20.982Z,5.07
2023-02-04T09:53:48.894Z,5.20
2023-02-04T09:56:15.412Z,4.73
2023-02-04T09:58:42.309Z,5.33
2023-02-04T10:01:17.676Z,5.03
2023-02-04T10:03:46.979Z,4.93
2023-02-04T10:06:20.390Z,5.10
2023-02-04T10:08:49.684Z,4.93
2023-02-04T10:11:18.621Z,5.37
2023-02-04T10:13:50.885Z,5.00
2023-02-04T10:16:29.588Z,4.53
2023-02-04T10:19:01.742Z,4.97
2023-02-04T10:21:32.099Z,5.40
2023-02-04T10:24:01.184Z,5.63
2023-02-04T10:26:30.188Z,5.37
2023-02-04T10:33:11.098Z,4.73
2023-02-04T10:35:48.209Z,5.00
2023-02-04T10:38:14.750Z,5.10
2023-02-04T10:40:41.788Z,4.77
2023-02-04T10:43:11.279Z,5.37
2023-02-04T10:45:38.720Z,4.67
2023-02-04T10:48:05.636Z,4.70
2023-02-04T10:50:32.652Z,5.07
2023-02-04T10:53:20.281Z,4.53
2023-02-04T10:55:49.190Z,5.20
2023-02-04T10:58:22.380Z,5.13
2023-02-04T11:00:48.848Z,4.57
2023-02-04T11:03:22.440Z,4.47
2023-02-04T11:05:49.353Z,4.70
2023-02-04T11:08:23.110Z,4.60
2023-02-04T11:10:58.158Z,4.20
2023-02-04T11:14:05.477Z,4.60
2023-02-04T11:16:36.966Z,4.60
2023-02-04T11:19:07.155Z,4.03
2023-02-04T11:21:33.507Z,3.93
2023-02-04T11:24:22.932Z,4.20
2023-02-04T11:27:04.948Z,3.83
2023-02-04T11:29:38.717Z,3.90
2023-02-04T11:32:26.729Z,4.07
2023-02-04T11:34:55.763Z,4.47
2023-02-04T11:37:36.311Z,3.53
2023-02-04T11:40:20.955Z,4.10
2023-02-04T11:42:47.836Z,4.47
2023-02-04T11:45:25.427Z,3.67
2023-02-04T11:47:52.216Z,4.33
2023-02-04T11:50:33.861Z,4.33
2023-02-04T11:53:04.715Z,4.17
2023-02-04T11:55:35.089Z,3.90
2023-02-04T11:58:01.549Z,3.40
2023-02-04T12:00:33.170Z,3.90
2023-02-04T12:03:07.844Z,3.87
2023-02-04T12:05:44.147Z,3.67
2023-02-04T12:08:26.292Z,3.60
2023-02-04T12:10:58.500Z,3.80
2023-02-04T12:13:26.490Z,3.53
2023-02-04T12:16:05.394Z,3.50
2023-02-04T12:18:33.795Z,3.30
2023-02-04T12:21:01.074Z,3.67
2023-02-04T12:23:29.396Z,3.60
2023-02-04T12:25:56.057Z,4.03
2023-02-04T12:28:23.359Z,4.20
2023-02-04T12:30:50.199Z,3.73
2023-02-04T12:33:16.660Z,3.53
2023-02-04T12:35:43.230Z,3.57
2023-02-04T12:38:10.329Z,3.60
2023-02-04T12:40:37.476Z,3.40
2023-02-04T12:43:04.436Z,4.07
2023-02-04T12:45:31.533Z,4.40
2023-02-04T12:47:58.248Z,4.00
2023-02-04T12:50:26.049Z,3.47
2023-02-04T12:52:54.863Z,3.40
2023-02-04T12:55:22.773Z,4.87
2023-02-04T12:57:49.756Z,3.80
2023-02-04T13:00:18.307Z,3.17
2023-02-04T13:02:45.009Z,3.00
2023-02-04T13:05:11.970Z,2.40
2023-02-04T13:07:40.463Z,3.13
2023-02-04T13:10:08.981Z,2.73
2023-02-04T13:12:35.587Z,2.43
2023-02-04T13:15:02.068Z,2.13
2023-02-04T13:17:28.548Z,2.30
2023-02-04T13:19:55.000Z,2.20
2023-02-04T13:22:21.411Z,2.43
2023-02-04T13:24:47.891Z,2.03
2023-02-04T13:27:15.297Z,2.23
2023-02-04T13:29:42.075Z,2.63
2023-02-04T13:32:09.468Z,2.43
2023-02-04T13:34:36.301Z,2.43
2023-02-04T13:37:02.858Z,2.50
2023-02-04T13:39:29.872Z,2.00
2023-02-04T13:41:56.362Z,1.90
2023-02-04T13:44:22.801Z,2.50
2023-02-04T13:46:49.234Z,2.03
2023-02-04T13:49:15.740Z,1.83
2023-02-04T13:51:42.144Z,2.20
2023-02-04T13:54:08.689Z,2.00
2023-02-04T13:56:35.143Z,2.73
2023-02-04T13:59:01.884Z,2.50
2023-02-04T14:01:28.399Z,2.30
2023-02-04T14:03:54.967Z,3.13
2023-02-04T14:06:22.224Z,2.47
2023-02-04T14:08:48.816Z,2.57
2023-02-04T14:11:15.333Z,2.90
2023-02-04T14:13:41.842Z,2.77
2023-02-04T14:16:09.319Z,2.50
2023-02-04T14:18:35.867Z,2.93
2023-02-04T14:21:02.381Z,2.83
2023-02-04T14:23:28.888Z,2.20
2023-02-04T14:25:55.403Z,2.53
2023-02-04T14:28:21.993Z,2.10
2023-02-04T14:30:48.485Z,2.70
2023-02-04T14:33:15.849Z,1.90
2023-02-04T14:35:42.277Z,3.20
2023-02-04T14:38:09.174Z,2.00
2023-02-04T14:40:35.632Z,2.40
2023-02-04T14:43:02.061Z,1.97
2023-02-04T14:45:28.590Z,2.80
2023-02-04T14:47:57.023Z,2.93
2023-02-04T14:50:27.019Z,2.53
2023-02-04T14:52:54.416Z,2.83
2023-02-04T14:55:20.856Z,3.00
2023-02-04T14:57:47.267Z,3.30
2023-02-04T15:00:14.653Z,3.37
2023-02-04T15:02:42.232Z,2.00
2023-02-04T15:05:10.116Z,2.70
2023-02-04T15:07:37.206Z,2.60
2023-02-04T15:10:03.970Z,3.57
2023-02-04T15:12:30.390Z,4.63
2023-02-04T15:14:56.861Z,2.97
2023-02-04T15:17:24.324Z,3.00
2023-02-04T15:19:50.767Z,2.83
2023-02-04T15:22:17.160Z,2.90
2023-02-04T15:24:43.626Z,2.43
2023-02-04T15:27:10.128Z,2.60
2023-02-04T15:29:36.538Z,2.50
2023-02-04T15:32:03.047Z,2.47
2023-02-04T15:34:30.553Z,2.70
2023-02-04T15:36:56.987Z,3.23
2023-02-04T15:39:23.487Z,2.90
2023-02-04T15:41:50.215Z,3.40
2023-02-04T15:44:16.579Z,2.40
2023-02-04T15:46:43.019Z,2.93
2023-02-04T15:49:09.460Z,2.57
2023-02-04T15:51:35.984Z,3.20
2023-02-04T15:54:02.440Z,3.00
2023-02-04T15:56:28.901Z,3.30
2023-02-04T15:58:56.341Z,5.43
2023-02-04T16:01:22.824Z,5.07
2023-02-04T16:03:51.077Z,4.47
2023-02-04T16:06:17.529Z,8.93
2023-02-04T16:08:43.903Z,4.43
2023-02-04T16:11:10.390Z,5.43
2023-02-04T16:13:37.159Z,5.20
2023-02-04T16:16:03.718Z,6.90
2023-02-04T16:18:30.794Z,7.87
2023-02-04T16:20:57.206Z,6.70
2023-02-04T16:23:23.710Z,6.83
2023-02-04T16:25:50.234Z,9.53
2023-02-04T16:28:16.735Z,5.73
2023-02-04T16:30:43.685Z,5.33
2023-02-04T16:33:10.797Z,5.83
2023-02-04T16:35:58.440Z,5.40
2023-02-04T16:38:26.028Z,4.90
2023-02-04T16:40:52.999Z,4.47
2023-02-04T16:43:20.019Z,3.93
2023-02-04T16:45:47.477Z,3.60
2023-02-04T16:48:13.910Z,3.40
2023-02-04T16:50:40.444Z,2.57
2023-02-04T16:53:07.475Z,3.40
2023-02-04T16:55:34.998Z,3.87
2023-02-04T16:58:01.672Z,3.40
2023-02-04T17:00:28.390Z,2.53
2023-02-04T17:02:55.050Z,2.63
2023-02-04T17:05:21.584Z,2.83
2023-02-04T17:07:48.322Z,3.10
2023-02-04T17:10:15.099Z,2.67
2023-02-04T17:12:41.574Z,2.87
2023-02-04T17:15:08.524Z,3.07
2023-02-04T17:17:35.125Z,5.87
2023-02-04T17:20:01.571Z,5.23
2023-02-04T17:22:27.984Z,5.40
2023-02-04T17:24:55.461Z,5.60
2023-02-04T17:27:21.861Z,4.73
2023-02-04T17:29:48.493Z,4.00
2023-02-04T17:32:14.899Z,3.00
2023-02-04T17:34:41.344Z,3.30
2023-02-04T17:37:08.502Z,2.33
2023-02-04T17:39:34.939Z,2.93
2023-02-04T17:42:01.416Z,2.70
2023-02-04T17:44:28.470Z,2.77
2023-02-04T17:46:55.048Z,2.90
2023-02-04T17:49:21.521Z,2.93
2023-02-04T17:51:47.942Z,2.80
2023-02-04T17:54:14.590Z,2.63
2023-02-04T17:56:41.026Z,3.60
2023-02-04T17:59:11.739Z,3.07
2023-02-04T18:01:38.673Z,2.87
2023-02-04T18:04:11.862Z,3.00
2023-02-04T18:06:38.337Z,2.70
2023-02-04T18:09:11.879Z,2.63
2023-02-04T18:11:40.032Z,3.00
2023-02-04T18:14:20.587Z,2.80
2023-02-04T18:16:47.153Z,2.87
2023-02-04T18:19:29.937Z,2.53
2023-02-04T18:21:58.388Z,2.30
2023-02-04T18:24:30.232Z,2.60
2023-02-04T18:27:01.593Z,2.50
2023-02-04T18:29:40.513Z,2.70
2023-02-04T18:32:21.091Z,2.50
2023-02-04T18:34:55.650Z,2.90
2023-02-04T18:37:36.229Z,3.13
2023-02-04T18:40:08.836Z,2.70
2023-02-04T18:42:40.912Z,2.80
2023-02-04T18:45:27.138Z,3.13
2023-02-04T18:47:55.598Z,2.87
2023-02-04T18:50:28.070Z,2.70
2023-02-04T18:52:54.617Z,2.83
2023-02-04T18:55:31.906Z,3.00
2023-02-04T18:58:22.806Z,2.50
2023-02-04T19:00:53.059Z,2.90
2023-02-04T19:03:29.071Z,3.27
2023-02-04T19:05:58.450Z,3.00
2023-02-04T19:08:28.078Z,3.10
2023-02-04T19:10:57.495Z,3.20
2023-02-04T19:13:38.271Z,3.37
2023-02-04T19:16:14.312Z,2.97
2023-02-04T19:18:43.905Z,2.97
2023-02-04T19:21:21.695Z,3.03
2023-02-04T19:23:50.172Z,3.30
2023-02-04T19:26:29.022Z,4.53
2023-02-04T19:28:55.985Z,3.50
2023-02-04T19:31:22.522Z,4.33
2023-02-04T19:33:50.558Z,3.50
2023-02-04T19:36:37.917Z,3.07
2023-02-04T19:39:27.300Z,3.77
2023-02-04T19:41:54.079Z,3.93
2023-02-04T19:44:34.905Z,4.10
2023-02-04T19:47:26.271Z,4.83
2023-02-04T19:50:02.891Z,5.27
2023-02-04T19:52:34.839Z,7.80
2023-02-04T19:55:16.352Z,8.47
2023-02-04T19:57:44.755Z,6.00
2023-02-04T20:00:36.169Z,4.30
2023-02-04T20:03:14.553Z,3.90
2023-02-04T20:05:41.538Z,3.70
2023-02-04T20:08:39.782Z,3.20
2023-02-04T20:11:15.261Z,3.57
2023-02-04T20:13:41.675Z,3.70
2023-02-04T20:16:39.251Z,5.00
2023-02-04T20:19:37.770Z,6.80
2023-02-04T20:22:38.546Z,6.37
2023-02-04T20:25:34.180Z,6.20
2023-02-04T20:28:12.072Z,4.87
2023-02-04T20:30:38.651Z,4.20
2023-02-04T20:33:28.526Z,4.33
2023-02-04T20:36:26.010Z,4.13
2023-02-04T20:39:24.584Z,4.40
2023-02-04T20:41:51.274Z,4.50
2023-02-04T20:44:26.090Z,4.07
2023-02-04T20:46:58.181Z,4.93
2023-02-04T20:49:26.663Z,4.87
2023-02-04T20:52:00.055Z,4.50
2023-02-04T20:54:30.332Z,8.10
2023-02-04T20:57:15.382Z,9.53
2023-02-04T20:59:43.002Z,10.43
2023-02-04T21:02:21.049Z,11.70
2023-02-04T21:04:53.765Z,11.40
2023-02-04T21:07:22.431Z,8.10
2023-02-04T21:09:49.398Z,8.77
2023-02-04T21:12:16.571Z,7.30
2023-02-04T21:14:42.987Z,7.17
2023-02-04T21:17:09.456Z,8.97
2023-02-04T21:19:35.956Z,7.57
2023-02-04T21:22:02.518Z,7.17
2023-02-04T21:24:31.749Z,5.77
2023-02-04T21:26:58.709Z,4.73
2023-02-04T21:29:26.043Z,4.20
2023-02-04T21:31:54.362Z,4.30
2023-02-04T21:34:20.937Z,4.83
2023-02-04T21:36:47.439Z,5.10
2023-02-04T21:39:13.883Z,4.97
2023-02-04T21:41:40.372Z,5.47
2023-02-04T21:44:06.777Z,4.50
2023-02-04T21:46:33.273Z,4.30
2023-02-04T21:48:59.774Z,4.47
2023-02-04T21:51:28.311Z,4.30
2023-02-04T21:53:54.776Z,4.30
2023-02-04T21:56:22.214Z,4.37
2023-02-04T21:58:48.920Z,4.37
2023-02-04T22:01:15.371Z,5.33
2023-02-04T22:03:41.801Z,4.70
2023-02-04T22:06:08.344Z,4.33
2023-02-04T22:08:34.755Z,4.87
2023-02-04T22:11:01.258Z,4.20
2023-02-04T22:13:27.715Z,4.30
2023-02-04T22:15:54.166Z,4.10
2023-02-04T22:18:20.749Z,4.10
2023-02-04T22:20:47.283Z,4.87
2023-02-04T22:23:13.811Z,4.90
2023-02-04T22:25:40.289Z,4.73
2023-02-04T22:28:06.802Z,4.30
2023-02-04T22:30:33.364Z,4.47
2023-02-04T22:33:01.585Z,3.93
2023-02-04T22:35:29.808Z,4.30
2023-02-04T22:37:57.493Z,4.37
2023-02-04T22:40:23.986Z,4.70
2023-02-04T22:42:50.363Z,7.93
2023-02-04T22:45:16.949Z,6.37
2023-02-04T22:47:43.607Z,5.07
2023-02-04T22:50:10.319Z,4.67
2023-02-04T22:52:36.787Z,4.17
2023-02-04T22:55:04.480Z,4.40
2023-02-04T22:57:30.887Z,4.07
2023-02-04T22:59:57.404Z,4.40
2023-02-04T23:02:23.837Z,4.93
2023-02-04T23:04:51.053Z,4.67
2023-02-04T23:07:17.492Z,5.63
2023-02-04T23:09:43.995Z,4.47
2023-02-04T23:12:13.332Z,5.83
2023-02-04T23:14:42.811Z,5.40
2023-02-04T23:17:10.280Z,4.70
2023-02-04T23:19:36.975Z,4.73
2023-02-04T23:22:04.851Z,4.37
2023-02-04T23:24:31.575Z,3.80
2023-02-04T23:27:00.918Z,4.30
2023-02-04T23:29:28.472Z,4.40
2023-02-04T23:31:55.872Z,4.63
2023-02-04T23:34:22.498Z,5.17
2023-02-04T23:36:51.134Z,5.80
2023-02-04T23:39:21.015Z,4.80
2023-02-04T23:41:48.397Z,5.97
2023-02-04T23:44:15.165Z,4.50
2023-02-04T23:46:41.822Z,4.50
2023-02-04T23:49:08.716Z,4.50
2023-02-04T23:51:35.595Z,4.57
2023-02-04T23:54:02.113Z,4.03
2023-02-04T23:56:29.029Z,3.50
2023-02-04T23:58:55.742Z,3.80
